Avon, New York
Current Conditions -  °F | °C
As of 7:54 AM on Sunday 23 Nov 2014 (Local Time) from KROC Reporting Station
Overcast Overcast  
Wind Chill: 42°   Ceiling: 3200
Heat Index: 46°   Visibility: 10mi
Dew Point: 39°   Wind: 7mph
Humidity: 76%   Direction: 220°SW
Pressure: 30.04"   Gusts: NA
Location:  42.91°N, 77.75°W
Report Text: KROC 231254Z 22006KT 10SM OVC032 08/04 A3004 RMK AO2 SLP179 T00780039
Loading
Personal Weather Stations






























Interactive Weather Map New forecast layout! Learn more

10-Day Weather Forecast

Advertisements
Track Severe Weather on mobile